SBOSBO MLE / VRMM
Speedbird OnlineSpeedbird Online MLE / VRMM

Malé International Airport
05:44 27°C

Location Male, Maldives
Latitude: 4.191830158233643
Longitude: 73.52909851074219
Web Airport Website | Wikipedia
Altitude 2 Meter / 6 Feet
Distance 8,499 KM / 5,281 Miles
from London.
Time Zone UTC +5 hours (Indian/Maldives)
Codes IATA: MLE
ICAO: VRMM
Currency £1 equals MVR 19.04
Runways
RunwayLength (m)Surface
183200Asphalt
363200Asphalt
Radio
TypeDescriptionFrequency
APPAPP119.7
GNDGND121.6
TWRTWR118.1
Live ATC
METAR VRMM 270000Z 08015KT 9999 SCT017TCU BKN270 27/25 Q1009 TEMPO FEW018CB
TAF TAF VRMM 262300Z 2700/2806 10012KT 9000 FEW017TCU TEMPO 2700/2706 FEW019CB
Weather As Of 27 Jan 2023 05:44
Description Broken clouds
Wind 28 km/h from East (80°)
Cloud Cover 75%
Precipitation Rain: none, Snow: none
Sunrise 06:20
Sunset 18:16
Lounges Leeli Lounge, Departure Terminal
Maamahi Executive Club, Main Terminal
Rotations During the last 90 days there were
81 flights from LHR
81 flights to LHR



Support Speedbird Online

© 2017-2023 Speedbird Online